MI30 weather

Air Park North
Alba, Michigan, United States

Public forecast

Using degrees Fahrenheit for public forecast. Weather courtesy of forecast.io.

Closest aviation weather report (METAR) to Air Park North

Closest report is Antrim County Airport, 10.3 nm (19.2 km) W. Retrieved 2019/10/16 06:36 UTC (0 seconds ago):

KACB 160636Z AUTO 17006KT 3SM BR OVC006 10/09 A2958 RMK AO2 T01000090

Closest aviation forecast (TAF) to Air Park North

Closest forecast is Cherry Capital Airport, 29.6 nm (54.7 km) WSW. Retrieved 2019/10/16 06:24 UTC (0 seconds ago):

TAF KTVC 160523Z 1606/1706 23006KT P6SM OVC014 FM160800 25007KT P6SM OVC009 FM161200 33015G25KT 3SM -SHRA BR OVC007 FM161500 33017G31KT 5SM -SHRA BR OVC011 FM170100 34016G25KT P6SM -SHRA OVC020 FM170300 34013G21KT P6SM OVC024